Time;durP1;ratioP1;P1;durP2;ratioP2;P2;SDS_P1;SDS_P2;PMS_P1;PMS_P2;Temp;Humidity;BMP_temperature;BMP_pressure;BME280_temperature;BME280_humidity;BME280_pressure;Samples;Min_cycle;Max_cycle;Signal;HPM_P1;HPM_P2
2022/12/08 00:02:05;;;;;;;30.42;25.55;;;7.20;99.90;;;;;;5076374;28;20174;-62
2022/12/08 00:09:20;;;;;;;30.17;25.25;;;7.00;99.90;;;;;;5076225;28;20725;-62
2022/12/08 00:10:00;;;;;;;34.60;26.17;;;7.00;99.90;;;;;;5076867;28;20205;-61
2022/12/08 00:12:26;;;;;;;45.08;30.10;;;7.10;99.90;;;;;;5076932;28;20182;-61
2022/12/08 00:14:53;;;;;;;36.78;28.33;;;7.10;99.90;;;;;;5076598;28;20185;-62
2022/12/08 00:17:19;;;;;;;25.42;17.00;;;7.00;99.90;;;;;;5076555;28;20253;-62
2022/12/08 00:19:44;;;;;;;29.88;17.15;;;7.00;99.90;;;;;;5076435;28;20607;-62
2022/12/08 00:22:12;;;;;;;29.50;18.98;;;7.10;99.90;;;;;;5076206;28;20189;-62
2022/12/08 00:24:39;;;;;;;31.00;18.63;;;7.10;99.90;;;;;;5076195;28;20193;-61
2022/12/08 00:27:07;;;;;;;29.40;18.80;;;7.20;99.90;;;;;;5076538;28;20205;-62
2022/12/08 00:29:32;;;;;;;24.95;18.35;;;7.10;99.90;;;;;;5076411;28;20174;-62
2022/12/08 00:31:58;;;;;;;29.58;18.42;;;6.80;99.90;;;;;;5076237;28;20252;-62
2022/12/08 00:34:23;;;;;;;34.45;18.83;;;6.90;99.90;;;;;;5076152;28;20733;-61
2022/12/08 00:36:49;;;;;;;30.33;18.27;;;6.80;99.90;;;;;;5076058;28;20665;-62
2022/12/08 00:39:16;;;;;;;30.90;17.88;;;6.90;99.90;;;;;;5075942;28;20172;-62
2022/12/08 00:44:26;;;;;;;28.20;17.27;;;6.60;99.90;;;;;;5076269;28;20243;-61
2022/12/08 00:46:52;;;;;;;30.25;17.65;;;6.60;99.90;;;;;;5075851;28;20637;-61
2022/12/08 00:49:18;;;;;;;31.20;16.52;;;6.60;99.90;;;;;;5075880;28;20186;-62
2022/12/08 00:51:44;;;;;;;27.38;16.63;;;6.50;99.90;;;;;;5075562;28;20185;-62
2022/12/08 00:54:13;;;;;;;23.17;16.27;;;6.40;99.90;;;;;;5075842;28;20204;-62
2022/12/08 00:56:39;;;;;;;27.27;16.77;;;6.40;99.90;;;;;;5075793;28;20220;-62
2022/12/08 00:59:05;;;;;;;24.17;16.38;;;6.30;99.90;;;;;;5075735;28;20591;-62
2022/12/08 01:01:32;;;;;;;27.20;17.08;;;6.30;99.90;;;;;;5075623;28;20238;-61
2022/12/08 01:04:01;;;;;;;31.55;17.27;;;6.30;99.90;;;;;;5075817;28;20201;-62
2022/12/08 01:06:26;;;;;;;23.58;15.95;;;6.20;99.90;;;;;;5075268;28;20247;-62
2022/12/08 01:08:52;;;;;;;26.92;16.98;;;6.20;99.90;;;;;;5075618;28;20181;-62
2022/12/08 01:11:18;;;;;;;29.92;17.20;;;6.20;99.90;;;;;;5075520;28;20232;-62
2022/12/08 01:13:45;;;;;;;40.97;17.88;;;6.00;99.90;;;;;;5075530;28;20180;-62
2022/12/08 01:16:33;;;;;;;28.35;16.23;;;6.00;99.90;;;;;;5075436;28;20239;-62
2022/12/08 01:18:59;;;;;;;28.73;16.27;;;5.90;99.90;;;;;;5075326;28;20682;-62
2022/12/08 01:21:26;;;;;;;26.75;15.88;;;5.80;99.90;;;;;;5075246;28;20212;-61
2022/12/08 01:23:51;;;;;;;24.08;14.63;;;5.80;99.90;;;;;;5075235;28;20189;-62
2022/12/08 01:26:18;;;;;;;22.65;14.40;;;5.60;99.90;;;;;;5075289;28;20528;-61
2022/12/08 01:28:45;;;;;;;22.00;13.55;;;5.60;99.90;;;;;;5075136;28;20253;-62
2022/12/08 01:31:16;;;;;;;26.85;15.18;;;5.50;99.90;;;;;;5075073;28;20213;-62
2022/12/08 01:33:42;;;;;;;28.58;14.02;;;5.40;99.90;;;;;;5074942;28;20169;-62
2022/12/08 01:36:18;;;;;;;25.52;13.75;;;5.50;99.90;;;;;;5075118;28;20204;-62
2022/12/08 01:38:43;;;;;;;24.85;14.40;;;5.40;99.90;;;;;;5074988;28;20646;-62
2022/12/08 01:41:13;;;;;;;20.17;13.70;;;5.50;99.90;;;;;;5074757;28;20213;-62
2022/12/08 01:43:59;;;;;;;24.33;14.20;;;5.40;99.90;;;;;;5074854;28;20178;-62
2022/12/08 01:46:27;;;;;;;22.95;14.23;;;5.40;99.90;;;;;;5074702;28;20619;-61
2022/12/08 01:49:05;;;;;;;25.60;14.18;;;5.40;99.90;;;;;;5074681;28;20175;-62
2022/12/08 01:51:34;;;;;;;30.48;14.70;;;5.40;99.90;;;;;;5074765;28;20270;-62
2022/12/08 01:54:02;;;;;;;25.30;14.52;;;5.40;99.90;;;;;;5074661;28;20202;-61
2022/12/08 01:56:39;;;;;;;23.88;13.55;;;5.50;99.90;;;;;;5074566;28;20170;-62
2022/12/08 01:59:05;;;;;;;18.63;13.02;;;5.50;99.90;;;;;;5074730;28;20602;-62
2022/12/08 02:01:31;;;;;;;21.83;13.45;;;5.30;99.90;;;;;;5074578;28;20300;-62
2022/12/08 02:03:59;;;;;;;18.77;12.77;;;5.30;99.90;;;;;;5074924;28;20178;-61
2022/12/08 02:06:28;;;;;;;19.70;13.13;;;5.20;99.90;;;;;;5074452;28;20174;-61
2022/12/08 02:08:54;;;;;;;25.33;13.35;;;5.10;99.90;;;;;;5074306;28;20170;-62
2022/12/08 02:11:20;;;;;;;26.25;14.13;;;5.20;99.90;;;;;;5074399;28;20243;-62
2022/12/08 02:13:48;;;;;;;24.95;13.57;;;5.30;99.90;;;;;;5074461;28;20182;-62
2022/12/08 02:16:37;;;;;;;20.23;13.18;;;5.30;99.90;;;;;;5074229;28;20256;-62
2022/12/08 02:19:39;;;;;;;18.95;13.38;;;5.20;99.90;;;;;;5073690;28;20184;-62
2022/12/08 02:22:45;;;;;;;22.95;13.38;;;5.00;99.90;;;;;;5072895;28;20186;-61
2022/12/08 02:25:25;;;;;;;20.90;13.00;;;4.80;99.90;;;;;;5074288;28;20234;-62
2022/12/08 02:28:26;;;;;;;26.17;13.55;;;4.80;99.90;;;;;;5073972;28;20203;-62
2022/12/08 02:31:06;;;;;;;18.52;12.43;;;4.80;99.90;;;;;;5056462;28;20604;-61
2022/12/08 02:33:53;;;;;;;26.02;12.80;;;4.80;99.90;;;;;;5072672;28;20539;-61
2022/12/08 02:36:45;;;;;;;24.52;12.75;;;4.80;99.90;;;;;;5074027;28;20193;-61
2022/12/08 02:39:45;;;;;;;19.15;12.45;;;4.80;99.90;;;;;;5068728;28;20735;-61
2022/12/08 02:42:43;;;;;;;23.30;12.20;;;4.70;99.90;;;;;;5073645;28;20212;-61
2022/12/08 02:45:24;;;;;;;23.67;12.73;;;4.80;99.90;;;;;;5073802;28;20177;-61
2022/12/08 02:47:51;;;;;;;18.40;12.95;;;5.00;99.90;;;;;;5073714;28;20205;-61
2022/12/08 02:50:17;;;;;;;23.40;13.18;;;4.90;99.90;;;;;;5073608;28;20186;-61
2022/12/08 02:52:45;;;;;;;23.23;11.93;;;5.00;99.90;;;;;;5073400;28;20673;-61
2022/12/08 02:55:18;;;;;;;21.50;12.18;;;5.10;99.90;;;;;;5073750;28;20182;-61
2022/12/08 02:58:06;;;;;;;23.10;12.38;;;5.10;99.90;;;;;;5073700;28;20174;-62
2022/12/08 03:01:04;;;;;;;20.98;11.43;;;5.30;99.90;;;;;;5073418;28;20204;-61
2022/12/08 03:03:34;;;;;;;18.48;11.40;;;5.30;99.90;;;;;;5073582;28;20186;-61
2022/12/08 03:06:21;;;;;;;17.70;11.45;;;5.30;99.90;;;;;;5073454;28;20178;-61
2022/12/08 03:09:07;;;;;;;15.90;10.25;;;5.30;99.90;;;;;;5073709;28;20169;-62
2022/12/08 03:11:43;;;;;;;15.38;9.98;;;5.30;99.90;;;;;;5073237;28;20181;-62
2022/12/08 03:14:13;;;;;;;18.27;9.68;;;5.50;99.90;;;;;;5073165;28;20623;-62
2022/12/08 03:16:42;;;;;;;15.25;9.40;;;5.50;99.90;;;;;;5073441;28;20170;-60
2022/12/08 03:19:31;;;;;;;16.50;9.63;;;5.50;99.90;;;;;;5073402;28;20170;-62
2022/12/08 03:22:02;;;;;;;17.15;9.23;;;5.50;99.90;;;;;;5073152;28;20281;-62
2022/12/08 03:24:32;;;;;;;17.05;10.07;;;5.50;99.90;;;;;;5073139;28;20194;-60
2022/12/08 03:27:11;;;;;;;17.75;10.68;;;5.20;99.90;;;;;;5072412;28;20169;-62
2022/12/08 03:29:36;;;;;;;18.98;10.85;;;5.40;99.90;;;;;;5071125;28;20179;-62
2022/12/08 03:32:25;;;;;;;20.38;11.73;;;5.50;99.90;;;;;;5072169;28;20722;-62
2022/12/08 03:34:52;;;;;;;19.70;11.80;;;5.80;99.90;;;;;;5072423;28;20260;-62
2022/12/08 03:37:19;;;;;;;17.85;12.32;;;5.80;99.90;;;;;;5072424;28;20191;-62
2022/12/08 03:39:44;;;;;;;20.55;12.45;;;5.70;99.90;;;;;;5072149;28;20163;-62
2022/12/08 03:42:11;;;;;;;21.08;12.23;;;5.60;99.90;;;;;;5072125;28;20538;-62
2022/12/08 03:44:37;;;;;;;19.33;11.95;;;5.70;99.90;;;;;;5071965;28;20260;-62
2022/12/08 03:47:02;;;;;;;21.08;12.05;;;5.70;99.90;;;;;;5072552;28;20710;-62
2022/12/08 03:49:28;;;;;;;18.00;11.07;;;5.60;99.90;;;;;;5072005;28;20573;-62
2022/12/08 03:51:53;;;;;;;17.83;10.68;;;5.60;99.90;;;;;;5072134;28;20178;-62
2022/12/08 03:54:19;;;;;;;17.38;10.77;;;5.40;99.90;;;;;;5072165;28;20615;-63
2022/12/08 03:56:45;;;;;;;18.90;10.13;;;5.40;99.90;;;;;;5071917;28;20640;-62
2022/12/08 03:59:10;;;;;;;20.13;10.07;;;5.50;99.90;;;;;;5071887;28;20185;-63
2022/12/08 04:01:36;;;;;;;20.08;9.05;;;5.40;99.90;;;;;;5071605;28;20259;-62
2022/12/08 04:04:02;;;;;;;18.40;9.45;;;5.30;99.90;;;;;;5072022;28;20185;-62
2022/12/08 04:06:28;;;;;;;15.50;9.45;;;5.40;99.90;;;;;;5071729;28;20651;-63
2022/12/08 04:08:54;;;;;;;13.50;9.27;;;5.50;99.90;;;;;;5071843;28;20199;-62
2022/12/08 04:11:20;;;;;;;15.00;8.55;;;5.70;99.90;;;;;;5071760;28;20260;-62
2022/12/08 04:13:46;;;;;;;16.48;8.35;;;5.70;99.90;;;;;;5071636;28;20182;-62
2022/12/08 04:16:20;;;;;;;14.05;8.98;;;5.70;99.90;;;;;;5071819;28;20184;-61
2022/12/08 04:18:46;;;;;;;13.35;8.48;;;5.90;99.90;;;;;;5071827;28;20174;-63
2022/12/08 04:21:12;;;;;;;11.85;7.95;;;6.10;99.90;;;;;;5071727;28;20217;-62
2022/12/08 04:23:38;;;;;;;11.77;7.72;;;6.10;99.90;;;;;;5071548;28;20182;-62
2022/12/08 04:26:04;;;;;;;10.30;7.50;;;6.10;99.90;;;;;;5031523;28;1127041;-62
2022/12/08 04:28:30;;;;;;;11.95;7.57;;;6.30;99.90;;;;;;5072478;28;20178;-62
2022/12/08 04:30:56;;;;;;;15.65;7.78;;;6.10;99.90;;;;;;5072725;28;20186;-62
2022/12/08 04:33:22;;;;;;;11.55;7.55;;;5.70;99.90;;;;;;5072569;28;20178;-62
2022/12/08 04:35:47;;;;;;;11.70;8.15;;;5.50;99.90;;;;;;5072442;28;20209;-61
2022/12/08 04:38:13;;;;;;;11.20;7.63;;;5.50;99.90;;;;;;5072401;28;20212;-61
2022/12/08 04:40:39;;;;;;;14.02;8.38;;;5.30;99.90;;;;;;5072592;28;20666;-61
2022/12/08 04:43:05;;;;;;;10.63;8.30;;;5.40;99.90;;;;;;5075787;28;20182;-62
2022/12/08 04:45:31;;;;;;;13.68;9.20;;;5.40;99.90;;;;;;5075912;28;20181;-62
2022/12/08 04:47:58;;;;;;;16.63;9.80;;;5.20;99.90;;;;;;5076045;28;20188;-62
2022/12/08 04:50:24;;;;;;;19.83;10.70;;;5.20;99.90;;;;;;5075942;28;20546;-61
2022/12/08 04:52:49;;;;;;;20.40;11.88;;;5.10;99.90;;;;;;5075859;28;20174;-61
2022/12/08 04:55:15;;;;;;;19.73;11.48;;;5.10;99.90;;;;;;5076094;28;20243;-61
2022/12/08 04:57:41;;;;;;;13.88;11.18;;;5.20;99.90;;;;;;5075667;28;20186;-61
2022/12/08 05:00:07;;;;;;;16.10;11.13;;;5.40;99.90;;;;;;5074269;28;20217;-62
2022/12/08 05:02:33;;;;;;;24.88;13.75;;;5.30;99.90;;;;;;5075746;28;20265;-61
2022/12/08 05:04:58;;;;;;;21.08;12.80;;;5.30;99.90;;;;;;5075735;28;20263;-61
2022/12/08 05:07:24;;;;;;;20.75;12.95;;;5.00;99.90;;;;;;5075938;28;20170;-61
2022/12/08 05:09:50;;;;;;;19.73;12.65;;;5.00;99.90;;;;;;5075521;28;20178;-61
2022/12/08 05:12:16;;;;;;;25.33;13.65;;;5.20;99.90;;;;;;5075364;28;20173;-62
2022/12/08 05:14:42;;;;;;;18.45;12.43;;;5.20;99.90;;;;;;5075554;28;20210;-62
2022/12/08 05:17:08;;;;;;;19.02;12.40;;;5.10;99.90;;;;;;5075531;28;20177;-62
2022/12/08 05:19:33;;;;;;;20.83;13.40;;;5.20;99.90;;;;;;5075481;28;20508;-61
2022/12/08 05:21:59;;;;;;;19.55;13.88;;;5.30;99.90;;;;;;5075309;28;20621;-61
2022/12/08 05:24:25;;;;;;;20.10;13.32;;;5.40;99.90;;;;;;5075318;28;20205;-61
2022/12/08 05:26:50;;;;;;;19.40;12.93;;;5.20;99.90;;;;;;5075121;28;20488;-61
2022/12/08 05:29:16;;;;;;;21.63;13.38;;;5.40;99.90;;;;;;5074362;28;20190;-61
2022/12/08 05:31:41;;;;;;;18.63;12.35;;;5.20;99.90;;;;;;5075216;28;20186;-61
2022/12/08 05:34:07;;;;;;;24.98;13.10;;;5.40;99.90;;;;;;5075121;28;20201;-61
2022/12/08 05:36:33;;;;;;;22.50;13.35;;;5.30;99.90;;;;;;5074933;28;20520;-62
2022/12/08 05:38:58;;;;;;;24.00;13.52;;;5.20;99.90;;;;;;5074965;28;20692;-61
2022/12/08 05:41:24;;;;;;;19.70;13.52;;;5.20;99.90;;;;;;5074756;28;20669;-61
2022/12/08 05:43:49;;;;;;;20.08;14.25;;;5.10;99.90;;;;;;5073868;28;20320;-61
2022/12/08 05:46:26;;;;;;;20.88;12.73;;;5.20;99.90;;;;;;5074955;28;20653;-61
2022/12/08 05:48:52;;;;;;;18.90;13.60;;;5.10;99.90;;;;;;5074897;28;20175;-61
2022/12/08 05:51:22;;;;;;;19.55;13.60;;;5.00;99.90;;;;;;5074713;28;20188;-61
2022/12/08 05:53:50;;;;;;;23.05;14.68;;;5.20;99.90;;;;;;5070956;28;20256;-61
2022/12/08 05:56:16;;;;;;;18.92;14.07;;;5.40;99.90;;;;;;5073596;28;20231;-61
2022/12/08 05:58:42;;;;;;;28.33;14.02;;;5.10;99.90;;;;;;5072931;28;20204;-61
2022/12/08 06:01:18;;;;;;;22.98;13.75;;;5.10;99.90;;;;;;5074653;28;20686;-60
2022/12/08 06:03:44;;;;;;;21.98;13.90;;;5.10;99.90;;;;;;5074315;28;20166;-60
2022/12/08 06:06:09;;;;;;;23.48;14.20;;;5.10;99.90;;;;;;5074396;28;20283;-60
2022/12/08 06:08:35;;;;;;;19.08;13.68;;;5.30;99.90;;;;;;5074114;28;20699;-60
2022/12/08 06:11:01;;;;;;;21.02;12.90;;;5.40;99.90;;;;;;5074371;28;20189;-60
2022/12/08 06:13:26;;;;;;;21.83;14.95;;;5.50;99.90;;;;;;5074260;28;20170;-60
2022/12/08 06:15:52;;;;;;;25.13;13.88;;;5.40;99.90;;;;;;5074290;28;20562;-60
2022/12/08 06:18:18;;;;;;;22.08;13.80;;;5.30;99.90;;;;;;5072894;28;20174;-60
2022/12/08 06:20:43;;;;;;;24.42;13.23;;;5.40;99.90;;;;;;5074233;28;20206;-60
2022/12/08 06:23:09;;;;;;;23.05;14.10;;;5.40;99.90;;;;;;5073988;28;20680;-61
2022/12/08 06:25:35;;;;;;;25.75;13.77;;;5.50;99.90;;;;;;5073477;28;20194;-60
2022/12/08 06:28:00;;;;;;;19.92;14.07;;;5.50;99.90;;;;;;5073559;28;20267;-60
2022/12/08 06:30:27;;;;;;;21.30;13.65;;;5.70;99.90;;;;;;5073985;28;20215;-60
2022/12/08 06:32:53;;;;;;;24.52;14.18;;;5.70;99.90;;;;;;5072740;28;20280;-60
2022/12/08 06:35:18;;;;;;;20.27;13.10;;;5.50;99.90;;;;;;5073897;28;20619;-61
2022/12/08 06:37:44;;;;;;;23.98;14.05;;;5.30;99.90;;;;;;5073737;28;20261;-60
2022/12/08 06:40:10;;;;;;;24.77;13.38;;;5.30;99.90;;;;;;5073751;28;20701;-60
2022/12/08 06:42:45;;;;;;;24.42;13.50;;;5.20;99.90;;;;;;5073647;28;20537;-60
2022/12/08 06:45:17;;;;;;;20.85;13.32;;;5.30;99.90;;;;;;5073746;28;20209;-61
2022/12/08 06:47:42;;;;;;;24.67;14.43;;;5.50;99.90;;;;;;5073706;28;20174;-61
2022/12/08 06:50:10;;;;;;;23.27;13.32;;;5.30;99.90;;;;;;5072297;28;20185;-60
2022/12/08 06:52:35;;;;;;;23.20;14.25;;;5.40;99.90;;;;;;5073641;28;20201;-61
2022/12/08 06:55:01;;;;;;;25.98;14.02;;;5.30;99.90;;;;;;5073335;28;20185;-60
2022/12/08 06:57:27;;;;;;;23.92;14.40;;;5.30;99.90;;;;;;5073485;28;20191;-61
2022/12/08 06:59:52;;;;;;;20.63;12.93;;;5.20;99.90;;;;;;5073270;28;20182;-60
2022/12/08 07:02:18;;;;;;;19.17;12.55;;;5.40;99.90;;;;;;5073361;28;20178;-60
2022/12/08 07:04:43;;;;;;;30.73;13.55;;;5.20;99.90;;;;;;5073102;28;20564;-60
2022/12/08 07:07:09;;;;;;;25.23;14.40;;;5.20;99.90;;;;;;5073536;28;20208;-60
2022/12/08 07:09:35;;;;;;;20.77;14.43;;;5.30;99.90;;;;;;5073195;28;20198;-61
2022/12/08 07:12:02;;;;;;;20.25;14.10;;;5.40;99.90;;;;;;5072143;28;20190;-60
2022/12/08 07:14:28;;;;;;;23.67;13.95;;;5.30;99.90;;;;;;5073548;28;20175;-61
2022/12/08 07:16:53;;;;;;;18.35;13.25;;;5.30;99.90;;;;;;5073156;28;20662;-60
2022/12/08 07:19:19;;;;;;;25.33;13.38;;;5.40;99.90;;;;;;5073111;28;20185;-61
2022/12/08 07:21:45;;;;;;;19.85;13.20;;;5.20;99.90;;;;;;5073311;28;20216;-60
2022/12/08 07:24:10;;;;;;;21.58;14.15;;;5.20;99.90;;;;;;5072871;28;20183;-60
2022/12/08 07:26:37;;;;;;;19.15;13.82;;;5.20;99.90;;;;;;5073155;28;20188;-61
2022/12/08 07:29:03;;;;;;;19.85;13.77;;;5.30;99.90;;;;;;5073156;28;20202;-60
2022/12/08 07:31:28;;;;;;;23.10;13.18;;;5.40;99.90;;;;;;5073014;28;20227;-61
2022/12/08 07:33:55;;;;;;;22.42;12.75;;;5.30;99.90;;;;;;5073284;28;20184;-60
2022/12/08 07:36:21;;;;;;;17.83;12.32;;;5.30;99.90;;;;;;5073213;28;20227;-60
2022/12/08 07:38:48;;;;;;;18.13;13.27;;;5.40;99.90;;;;;;5072910;28;20273;-60
2022/12/08 07:41:17;;;;;;;20.88;13.75;;;5.20;99.90;;;;;;5073220;28;20613;-60
2022/12/08 07:43:43;;;;;;;18.73;12.73;;;5.20;99.90;;;;;;5073004;28;20209;-60
2022/12/08 07:46:17;;;;;;;21.27;12.45;;;5.20;99.90;;;;;;5073014;28;20211;-60
2022/12/08 07:48:43;;;;;;;18.77;12.73;;;5.30;99.90;;;;;;5073167;28;20249;-60
2022/12/08 07:51:11;;;;;;;19.42;12.45;;;5.50;99.90;;;;;;5073114;28;20184;-60
2022/12/08 07:53:41;;;;;;;22.45;13.73;;;5.50;99.90;;;;;;5072886;28;20235;-61
2022/12/08 07:56:09;;;;;;;19.67;13.15;;;5.60;99.90;;;;;;5073174;28;20185;-60
2022/12/08 07:58:35;;;;;;;22.83;13.18;;;5.40;99.90;;;;;;5072930;28;20256;-61
2022/12/08 08:01:01;;;;;;;22.73;13.18;;;5.40;99.90;;;;;;5072912;28;20304;-61
2022/12/08 08:03:26;;;;;;;21.75;13.18;;;5.40;99.90;;;;;;5071951;28;20604;-61
2022/12/08 08:05:52;;;;;;;22.05;13.60;;;5.40;99.90;;;;;;5073104;28;20182;-61
2022/12/08 08:08:17;;;;;;;21.80;12.45;;;5.30;99.90;;;;;;5072856;28;20178;-60
2022/12/08 08:10:43;;;;;;;20.10;13.27;;;5.40;99.90;;;;;;5072723;28;20581;-60
2022/12/08 08:13:09;;;;;;;22.50;13.60;;;5.50;99.90;;;;;;5071416;28;20232;-60
2022/12/08 08:15:35;;;;;;;19.95;13.15;;;5.60;99.90;;;;;;5072844;28;20269;-61
2022/12/08 08:18:01;;;;;;;21.30;13.75;;;5.70;99.90;;;;;;5076620;28;20583;-61
2022/12/08 08:20:26;;;;;;;23.17;14.30;;;5.60;99.90;;;;;;5076480;28;20214;-60
2022/12/08 08:22:52;;;;;;;21.88;13.30;;;5.60;99.90;;;;;;5076482;28;20166;-61
2022/12/08 08:25:21;;;;;;;21.80;13.52;;;5.60;99.90;;;;;;5076267;28;20216;-60
2022/12/08 08:27:47;;;;;;;21.20;13.65;;;5.60;99.90;;;;;;5076164;28;20181;-60
2022/12/08 08:30:13;;;;;;;20.10;13.38;;;5.50;99.90;;;;;;5076286;28;20185;-61
2022/12/08 08:32:40;;;;;;;19.23;12.63;;;5.70;99.90;;;;;;5076417;28;20269;-60
2022/12/08 08:35:05;;;;;;;22.05;13.68;;;5.70;99.90;;;;;;5076139;28;20508;-60
2022/12/08 08:37:31;;;;;;;20.90;13.50;;;5.70;99.90;;;;;;5076129;28;20180;-61
2022/12/08 08:39:57;;;;;;;16.27;12.55;;;5.70;99.90;;;;;;5076061;28;20209;-61
2022/12/08 08:42:23;;;;;;;20.27;12.75;;;5.70;99.90;;;;;;5076016;28;20197;-62
2022/12/08 08:44:48;;;;;;;21.45;12.80;;;5.90;99.90;;;;;;5076174;28;20182;-60
2022/12/08 08:47:14;;;;;;;19.67;12.45;;;5.80;99.90;;;;;;5076096;28;20598;-61
2022/12/08 08:49:40;;;;;;;16.00;11.77;;;5.90;99.90;;;;;;5075847;28;20181;-60
2022/12/08 08:52:06;;;;;;;16.90;12.05;;;6.00;99.90;;;;;;5075790;28;20178;-63
2022/12/08 08:54:32;;;;;;;17.40;11.45;;;5.90;99.90;;;;;;5074625;28;20643;-61
2022/12/08 08:56:59;;;;;;;19.73;11.55;;;6.00;99.90;;;;;;5075732;28;20171;-60
2022/12/08 08:59:25;;;;;;;16.33;11.32;;;6.10;99.90;;;;;;5075392;28;20197;-61
2022/12/08 09:01:52;;;;;;;18.38;11.48;;;6.10;99.90;;;;;;5075342;28;20304;-60
2022/12/08 09:04:18;;;;;;;22.30;11.85;;;6.00;99.90;;;;;;5075725;28;20178;-61
2022/12/08 09:06:44;;;;;;;15.00;10.68;;;5.90;99.90;;;;;;5075704;28;20269;-60
2022/12/08 09:09:11;;;;;;;17.63;11.00;;;5.80;99.90;;;;;;5075394;28;20262;-61
2022/12/08 09:11:37;;;;;;;15.80;10.43;;;5.80;99.90;;;;;;5075496;28;20191;-61
2022/12/08 09:14:03;;;;;;;16.20;10.93;;;5.70;99.90;;;;;;5075315;28;20231;-61
2022/12/08 09:16:29;;;;;;;18.25;10.38;;;5.60;99.90;;;;;;5075547;28;20574;-60
2022/12/08 09:18:58;;;;;;;18.95;11.30;;;5.60;99.90;;;;;;5075377;28;20265;-61
2022/12/08 09:21:25;;;;;;;14.93;11.15;;;5.50;99.90;;;;;;5075249;28;20218;-61
2022/12/08 09:23:53;;;;;;;17.35;12.18;;;5.40;99.90;;;;;;5075266;28;20193;-60
2022/12/08 09:26:23;;;;;;;20.40;10.93;;;5.10;99.90;;;;;;5074382;28;20194;-60
2022/12/08 09:28:52;;;;;;;19.95;11.25;;;5.20;99.90;;;;;;5074420;28;20193;-60
2022/12/08 09:31:19;;;;;;;18.52;12.20;;;4.90;99.90;;;;;;5075190;28;20182;-60
2022/12/08 09:33:46;;;;;;;18.77;12.05;;;5.00;99.90;;;;;;5075084;28;20193;-60
2022/12/08 09:36:12;;;;;;;19.52;12.48;;;5.10;99.90;;;;;;5075055;28;20630;-60
2022/12/08 09:38:38;;;;;;;19.45;12.27;;;5.10;99.90;;;;;;5073795;28;20174;-60
2022/12/08 09:41:32;;;;;;;18.55;12.60;;;5.20;99.90;;;;;;5074826;28;20236;-60
2022/12/08 09:44:16;;;;;;;20.08;12.30;;;5.30;99.90;;;;;;5075056;28;20162;-60
2022/12/08 09:46:42;;;;;;;15.85;11.75;;;5.40;99.90;;;;;;5074897;28;20212;-60
2022/12/08 09:49:15;;;;;;;19.95;12.45;;;5.60;99.90;;;;;;5074863;28;20178;-60
2022/12/08 09:51:43;;;;;;;20.65;12.35;;;5.50;99.90;;;;;;5074933;28;20284;-61
2022/12/08 09:54:32;;;;;;;20.77;12.15;;;5.70;99.90;;;;;;5075168;28;20178;-60
2022/12/08 09:57:04;;;;;;;19.02;12.10;;;5.80;99.90;;;;;;5074795;28;20170;-60
2022/12/08 09:59:33;;;;;;;19.50;12.35;;;5.90;99.90;;;;;;5074467;28;20543;-60
2022/12/08 10:02:10;;;;;;;18.02;12.35;;;5.90;99.90;;;;;;5074316;28;20729;-60
2022/12/08 10:04:39;;;;;;;23.52;13.10;;;6.20;99.90;;;;;;5074654;28;20173;-60
2022/12/08 10:07:26;;;;;;;18.02;13.23;;;6.20;99.90;;;;;;5074449;28;20178;-60
2022/12/08 10:10:20;;;;;;;18.40;14.13;;;6.40;99.90;;;;;;5074366;28;20201;-60
2022/12/08 10:12:57;;;;;;;19.70;12.93;;;6.70;99.90;;;;;;5074493;28;20332;-60
2022/12/08 10:15:56;;;;;;;16.45;12.75;;;6.80;99.90;;;;;;5074171;28;20590;-60
2022/12/08 10:18:26;;;;;;;17.85;15.07;;;6.70;99.90;;;;;;5074052;28;20188;-60
2022/12/08 10:20:56;;;;;;;15.88;12.20;;;6.80;99.90;;;;;;5074281;28;20198;-60
2022/12/08 10:23:42;;;;;;;17.00;12.30;;;6.90;99.90;;;;;;5074086;28;20207;-60
2022/12/08 10:26:13;;;;;;;17.30;12.05;;;6.80;99.90;;;;;;5073881;28;20216;-60
2022/12/08 10:28:39;;;;;;;17.95;11.88;;;7.20;99.90;;;;;;5073971;28;20253;-60
2022/12/08 10:31:05;;;;;;;15.07;11.57;;;7.10;99.90;;;;;;5073864;28;20258;-60
2022/12/08 10:33:32;;;;;;;15.40;13.30;;;7.30;99.90;;;;;;5074061;28;20255;-60
2022/12/08 10:36:03;;;;;;;15.05;12.82;;;7.50;99.90;;;;;;5074084;28;20253;-60
2022/12/08 10:38:35;;;;;;;15.05;13.10;;;7.50;99.90;;;;;;5073511;28;20171;-60
2022/12/08 10:41:13;;;;;;;16.95;12.70;;;7.20;99.90;;;;;;5073794;28;20288;-60
2022/12/08 10:43:45;;;;;;;15.55;12.65;;;7.20;99.90;;;;;;5073645;28;20657;-60
2022/12/08 10:46:14;;;;;;;14.40;12.52;;;7.30;99.90;;;;;;5073910;28;20182;-60
2022/12/08 10:48:50;;;;;;;15.38;13.27;;;7.40;99.90;;;;;;5073579;28;20173;-60
2022/12/08 10:51:39;;;;;;;15.30;13.30;;;7.50;99.90;;;;;;5073597;28;20669;-60
2022/12/08 10:54:23;;;;;;;15.02;13.48;;;7.60;99.90;;;;;;5074067;28;20186;-60
2022/12/08 10:56:54;;;;;;;13.90;12.35;;;7.80;99.90;;;;;;5073542;28;20530;-60
2022/12/08 10:59:20;;;;;;;15.32;12.57;;;8.00;99.90;;;;;;5073423;28;20182;-60
2022/12/08 11:01:48;;;;;;;13.90;11.30;;;8.10;99.90;;;;;;5073419;28;20221;-60
2022/12/08 11:04:25;;;;;;;15.52;11.57;;;8.00;99.90;;;;;;5073374;28;20186;-60
2022/12/08 11:06:52;;;;;;;13.68;11.02;;;7.90;99.90;;;;;;5072347;28;20178;-60
2022/12/08 11:09:17;;;;;;;16.15;11.65;;;8.00;99.90;;;;;;5073455;28;20264;-60
2022/12/08 11:11:48;;;;;;;14.00;11.82;;;8.10;99.90;;;;;;5073382;28;20177;-60
2022/12/08 11:14:16;;;;;;;15.02;12.23;;;8.00;99.90;;;;;;5072083;28;20182;-60
2022/12/08 11:16:42;;;;;;;14.15;12.15;;;7.80;99.90;;;;;;5073139;28;20177;-60
2022/12/08 11:19:18;;;;;;;15.60;12.23;;;7.30;99.90;;;;;;5073243;28;20192;-60
2022/12/08 11:21:45;;;;;;;14.32;12.80;;;7.40;99.90;;;;;;5073295;28;20214;-60
2022/12/08 11:24:13;;;;;;;14.63;13.13;;;7.40;99.90;;;;;;5073282;28;20256;-61
2022/12/08 11:26:45;;;;;;;14.77;13.00;;;7.10;99.90;;;;;;5073204;28;20240;-60
2022/12/08 11:29:12;;;;;;;13.20;11.80;;;7.20;99.90;;;;;;5073173;28;20189;-60
2022/12/08 11:31:48;;;;;;;15.52;13.43;;;7.20;99.90;;;;;;5073038;28;20228;-60
2022/12/08 11:34:29;;;;;;;14.32;12.90;;;7.20;99.90;;;;;;5073260;28;20565;-60
2022/12/08 11:36:56;;;;;;;14.32;11.90;;;7.30;99.90;;;;;;5073176;28;20177;-60
2022/12/08 11:39:28;;;;;;;13.85;12.45;;;7.30;99.90;;;;;;5073025;28;20171;-60
2022/12/08 11:41:57;;;;;;;16.58;13.25;;;7.20;99.90;;;;;;5072881;28;20593;-60
2022/12/08 11:44:25;;;;;;;13.18;11.80;;;7.30;99.90;;;;;;5072996;28;20209;-60
2022/12/08 11:46:57;;;;;;;12.40;11.10;;;7.30;99.90;;;;;;5073010;28;20189;-61
2022/12/08 11:49:33;;;;;;;13.25;11.70;;;6.90;99.90;;;;;;5073138;28;20269;-60
2022/12/08 11:52:40;;;;;;;14.20;12.38;;;6.90;99.90;;;;;;5075502;28;20180;-60
2022/12/08 11:55:25;;;;;;;13.38;11.32;;;7.00;99.90;;;;;;5077045;28;20180;-60
2022/12/08 11:57:50;;;;;;;13.52;10.30;;;7.10;99.90;;;;;;5076843;28;20182;-60
2022/12/08 12:00:17;;;;;;;13.75;12.20;;;7.20;99.90;;;;;;5076770;28;20255;-60
2022/12/08 12:02:55;;;;;;;13.95;10.98;;;7.20;99.90;;;;;;5076671;28;20177;-60
2022/12/08 12:05:30;;;;;;;14.98;11.45;;;7.30;99.90;;;;;;5077025;28;20610;-60
2022/12/08 12:08:21;;;;;;;12.35;11.07;;;7.70;99.90;;;;;;5076729;28;20176;-61
2022/12/08 12:11:08;;;;;;;14.73;10.85;;;7.70;99.90;;;;;;5076700;28;20185;-61
2022/12/08 12:14:24;;;;;;;11.57;10.38;;;7.80;99.90;;;;;;5076736;28;20660;-60
2022/12/08 12:17:02;;;;;;;11.63;10.43;;;7.90;99.90;;;;;;5050779;28;20322;-60
2022/12/08 12:19:32;;;;;;;11.52;10.32;;;8.10;99.90;;;;;;5076341;28;20265;-60
2022/12/08 12:22:04;;;;;;;11.25;10.07;;;8.00;99.90;;;;;;5076463;28;20685;-60
2022/12/08 12:24:36;;;;;;;10.98;8.30;;;8.10;99.90;;;;;;5076076;28;20651;-60
2022/12/08 12:27:14;;;;;;;9.70;7.80;;;8.10;99.90;;;;;;5076299;28;20167;-60
2022/12/08 12:29:52;;;;;;;9.45;8.15;;;8.10;99.90;;;;;;5076085;28;20167;-60
2022/12/08 12:32:18;;;;;;;5.07;3.92;;;8.30;99.90;;;;;;5076352;28;20174;-60
2022/12/08 12:35:04;;;;;;;2.28;2.08;;;7.70;99.90;;;;;;5075032;28;20189;-60
2022/12/08 12:37:41;;;;;;;2.50;1.77;;;6.60;99.90;;;;;;5076318;28;20178;-60
2022/12/08 12:40:31;;;;;;;2.75;2.55;;;6.10;99.90;;;;;;5075921;28;20197;-60
2022/12/08 12:42:57;;;;;;;1.30;1.20;;;5.40;99.90;;;;;;5076204;28;20520;-60
2022/12/08 12:45:33;;;;;;;1.77;1.50;;;5.00;99.90;;;;;;5076204;28;20170;-60
2022/12/08 12:47:59;;;;;;;4.72;3.45;;;4.80;99.90;;;;;;5076000;28;20179;-60
2022/12/08 12:50:33;;;;;;;1.65;1.30;;;4.60;99.90;;;;;;5075748;28;20271;-60
2022/12/08 12:53:18;;;;;;;1.80;1.60;;;4.30;99.90;;;;;;5075950;28;20189;-60
2022/12/08 12:55:44;;;;;;;4.63;2.55;;;4.30;99.90;;;;;;5075652;28;20200;-60
2022/12/08 12:58:28;;;;;;;1.48;1.17;;;4.20;99.90;;;;;;5075777;28;20178;-60
2022/12/08 13:01:09;;;;;;;2.38;1.60;;;4.20;99.90;;;;;;5075477;28;20301;-61